sensor_id;sensor_type;location;lat;lon;timestamp;P1;durP1;ratioP1;P2;durP2;ratioP2
18754;SDS011;35061;47.664;9.166;2022-07-25T00:00:49;10.38;;;7.60;;
18754;SDS011;35061;47.664;9.166;2022-07-25T00:03:16;8.27;;;7.28;;
18754;SDS011;35061;47.664;9.166;2022-07-25T00:05:44;8.85;;;7.70;;
18754;SDS011;35061;47.664;9.166;2022-07-25T00:08:12;7.60;;;6.80;;
18754;SDS011;35061;47.664;9.166;2022-07-25T00:10:40;8.35;;;7.55;;
18754;SDS011;35061;47.664;9.166;2022-07-25T00:13:08;9.55;;;7.65;;
18754;SDS011;35061;47.664;9.166;2022-07-25T00:15:35;7.25;;;6.57;;
18754;SDS011;35061;47.664;9.166;2022-07-25T00:18:04;7.57;;;6.87;;
18754;SDS011;35061;47.664;9.166;2022-07-25T00:20:31;9.07;;;7.68;;
18754;SDS011;35061;47.664;9.166;2022-07-25T00:22:59;8.13;;;7.32;;
18754;SDS011;35061;47.664;9.166;2022-07-25T00:25:27;7.57;;;6.90;;
18754;SDS011;35061;47.664;9.166;2022-07-25T00:27:54;8.45;;;7.55;;
18754;SDS011;35061;47.664;9.166;2022-07-25T00:30:22;7.97;;;7.28;;
18754;SDS011;35061;47.664;9.166;2022-07-25T00:32:50;7.95;;;7.15;;
18754;SDS011;35061;47.664;9.166;2022-07-25T00:35:18;7.40;;;6.50;;
18754;SDS011;35061;47.664;9.166;2022-07-25T00:37:46;7.62;;;6.93;;
18754;SDS011;35061;47.664;9.166;2022-07-25T00:40:14;8.40;;;7.10;;
18754;SDS011;35061;47.664;9.166;2022-07-25T00:42:41;8.43;;;7.10;;
18754;SDS011;35061;47.664;9.166;2022-07-25T00:45:09;7.80;;;7.00;;
18754;SDS011;35061;47.664;9.166;2022-07-25T00:47:37;8.70;;;7.57;;
18754;SDS011;35061;47.664;9.166;2022-07-25T00:50:05;8.57;;;7.75;;
18754;SDS011;35061;47.664;9.166;2022-07-25T00:52:33;8.02;;;7.22;;
18754;SDS011;35061;47.664;9.166;2022-07-25T00:55:01;8.45;;;7.65;;
18754;SDS011;35061;47.664;9.166;2022-07-25T00:57:29;8.77;;;7.90;;
18754;SDS011;35061;47.664;9.166;2022-07-25T00:59:57;8.60;;;7.80;;
18754;SDS011;35061;47.664;9.166;2022-07-25T01:02:25;8.95;;;7.90;;
18754;SDS011;35061;47.664;9.166;2022-07-25T01:04:53;8.45;;;7.65;;
18754;SDS011;35061;47.664;9.166;2022-07-25T01:07:21;8.57;;;7.78;;
18754;SDS011;35061;47.664;9.166;2022-07-25T01:09:49;8.40;;;7.12;;
18754;SDS011;35061;47.664;9.166;2022-07-25T01:12:18;8.68;;;7.78;;
18754;SDS011;35061;47.664;9.166;2022-07-25T01:14:45;8.35;;;7.43;;
18754;SDS011;35061;47.664;9.166;2022-07-25T01:17:13;9.15;;;8.32;;
18754;SDS011;35061;47.664;9.166;2022-07-25T01:19:41;8.48;;;7.65;;
18754;SDS011;35061;47.664;9.166;2022-07-25T01:22:09;8.93;;;8.00;;
18754;SDS011;35061;47.664;9.166;2022-07-25T01:24:37;9.52;;;8.63;;
18754;SDS011;35061;47.664;9.166;2022-07-25T01:27:05;10.15;;;8.35;;
18754;SDS011;35061;47.664;9.166;2022-07-25T01:29:42;9.27;;;8.18;;
18754;SDS011;35061;47.664;9.166;2022-07-25T01:32:10;9.07;;;8.18;;
18754;SDS011;35061;47.664;9.166;2022-07-25T01:34:38;9.65;;;8.65;;
18754;SDS011;35061;47.664;9.166;2022-07-25T01:37:06;9.00;;;8.18;;
18754;SDS011;35061;47.664;9.166;2022-07-25T01:39:34;9.00;;;8.10;;
18754;SDS011;35061;47.664;9.166;2022-07-25T01:42:02;9.10;;;8.15;;
18754;SDS011;35061;47.664;9.166;2022-07-25T01:44:29;8.68;;;7.87;;
18754;SDS011;35061;47.664;9.166;2022-07-25T01:46:57;8.88;;;8.07;;
18754;SDS011;35061;47.664;9.166;2022-07-25T01:49:25;8.88;;;7.80;;
18754;SDS011;35061;47.664;9.166;2022-07-25T01:51:53;8.32;;;7.53;;
18754;SDS011;35061;47.664;9.166;2022-07-25T01:54:20;8.77;;;7.87;;
18754;SDS011;35061;47.664;9.166;2022-07-25T01:56:49;8.93;;;7.95;;
18754;SDS011;35061;47.664;9.166;2022-07-25T01:59:17;8.63;;;7.82;;
18754;SDS011;35061;47.664;9.166;2022-07-25T02:01:45;8.77;;;7.87;;
18754;SDS011;35061;47.664;9.166;2022-07-25T02:04:13;8.43;;;7.65;;
18754;SDS011;35061;47.664;9.166;2022-07-25T02:06:40;8.85;;;8.00;;
18754;SDS011;35061;47.664;9.166;2022-07-25T02:09:08;8.43;;;7.60;;
18754;SDS011;35061;47.664;9.166;2022-07-25T02:11:36;8.90;;;8.02;;
18754;SDS011;35061;47.664;9.166;2022-07-25T02:14:04;8.43;;;7.62;;
18754;SDS011;35061;47.664;9.166;2022-07-25T02:16:32;8.60;;;7.80;;
18754;SDS011;35061;47.664;9.166;2022-07-25T02:19:00;9.18;;;8.27;;
18754;SDS011;35061;47.664;9.166;2022-07-25T02:21:28;8.90;;;7.87;;
18754;SDS011;35061;47.664;9.166;2022-07-25T02:23:56;8.35;;;7.55;;
18754;SDS011;35061;47.664;9.166;2022-07-25T02:26:24;8.85;;;7.95;;
18754;SDS011;35061;47.664;9.166;2022-07-25T02:28:52;9.77;;;7.90;;
18754;SDS011;35061;47.664;9.166;2022-07-25T02:31:19;9.52;;;8.20;;
18754;SDS011;35061;47.664;9.166;2022-07-25T02:33:47;9.27;;;8.38;;
18754;SDS011;35061;47.664;9.166;2022-07-25T02:36:15;9.43;;;8.63;;
18754;SDS011;35061;47.664;9.166;2022-07-25T02:38:43;9.25;;;8.45;;
18754;SDS011;35061;47.664;9.166;2022-07-25T02:41:11;8.57;;;7.62;;
18754;SDS011;35061;47.664;9.166;2022-07-25T02:43:38;9.80;;;8.90;;
18754;SDS011;35061;47.664;9.166;2022-07-25T02:46:06;9.80;;;8.52;;
18754;SDS011;35061;47.664;9.166;2022-07-25T02:48:34;8.65;;;7.85;;
18754;SDS011;35061;47.664;9.166;2022-07-25T02:51:02;8.65;;;7.85;;
18754;SDS011;35061;47.664;9.166;2022-07-25T02:53:29;9.00;;;8.20;;
18754;SDS011;35061;47.664;9.166;2022-07-25T02:56:17;10.27;;;8.85;;
18754;SDS011;35061;47.664;9.166;2022-07-25T02:58:46;9.60;;;8.30;;
18754;SDS011;35061;47.664;9.166;2022-07-25T03:01:14;9.20;;;8.30;;
18754;SDS011;35061;47.664;9.166;2022-07-25T03:03:42;9.50;;;8.57;;
18754;SDS011;35061;47.664;9.166;2022-07-25T03:06:09;10.63;;;8.90;;
18754;SDS011;35061;47.664;9.166;2022-07-25T03:08:37;10.15;;;9.15;;
18754;SDS011;35061;47.664;9.166;2022-07-25T03:11:05;10.55;;;9.45;;
18754;SDS011;35061;47.664;9.166;2022-07-25T03:13:33;11.90;;;9.55;;
18754;SDS011;35061;47.664;9.166;2022-07-25T03:16:00;10.30;;;9.20;;
18754;SDS011;35061;47.664;9.166;2022-07-25T03:18:28;9.90;;;8.90;;
18754;SDS011;35061;47.664;9.166;2022-07-25T03:20:56;9.30;;;8.50;;
18754;SDS011;35061;47.664;9.166;2022-07-25T03:23:24;10.10;;;9.07;;
18754;SDS011;35061;47.664;9.166;2022-07-25T03:25:54;9.60;;;8.70;;
18754;SDS011;35061;47.664;9.166;2022-07-25T03:28:22;10.00;;;9.02;;
18754;SDS011;35061;47.664;9.166;2022-07-25T03:30:51;9.60;;;8.70;;
18754;SDS011;35061;47.664;9.166;2022-07-25T03:33:19;10.55;;;9.55;;
18754;SDS011;35061;47.664;9.166;2022-07-25T03:35:47;10.57;;;9.60;;
18754;SDS011;35061;47.664;9.166;2022-07-25T03:38:14;11.12;;;9.05;;
18754;SDS011;35061;47.664;9.166;2022-07-25T03:40:42;10.02;;;8.95;;
18754;SDS011;35061;47.664;9.166;2022-07-25T03:43:10;10.38;;;9.30;;
18754;SDS011;35061;47.664;9.166;2022-07-25T03:45:38;9.73;;;8.73;;
18754;SDS011;35061;47.664;9.166;2022-07-25T03:48:06;9.80;;;8.93;;
18754;SDS011;35061;47.664;9.166;2022-07-25T03:50:34;10.48;;;9.07;;
18754;SDS011;35061;47.664;9.166;2022-07-25T03:53:01;9.60;;;8.70;;
18754;SDS011;35061;47.664;9.166;2022-07-25T03:55:29;10.40;;;8.65;;
18754;SDS011;35061;47.664;9.166;2022-07-25T03:57:57;10.70;;;9.10;;
18754;SDS011;35061;47.664;9.166;2022-07-25T04:00:25;10.98;;;9.75;;
18754;SDS011;35061;47.664;9.166;2022-07-25T04:02:53;9.68;;;8.77;;
18754;SDS011;35061;47.664;9.166;2022-07-25T04:05:20;11.12;;;9.82;;
18754;SDS011;35061;47.664;9.166;2022-07-25T04:07:48;10.27;;;8.98;;
18754;SDS011;35061;47.664;9.166;2022-07-25T04:10:16;9.60;;;8.70;;
18754;SDS011;35061;47.664;9.166;2022-07-25T04:12:43;10.65;;;9.48;;
18754;SDS011;35061;47.664;9.166;2022-07-25T04:15:11;10.68;;;9.63;;
18754;SDS011;35061;47.664;9.166;2022-07-25T04:17:39;11.85;;;10.20;;
18754;SDS011;35061;47.664;9.166;2022-07-25T04:20:07;9.70;;;8.70;;
18754;SDS011;35061;47.664;9.166;2022-07-25T04:22:36;11.93;;;10.73;;
18754;SDS011;35061;47.664;9.166;2022-07-25T04:25:09;10.80;;;9.70;;
18754;SDS011;35061;47.664;9.166;2022-07-25T04:27:37;11.15;;;9.82;;
18754;SDS011;35061;47.664;9.166;2022-07-25T04:30:05;12.07;;;9.80;;
18754;SDS011;35061;47.664;9.166;2022-07-25T04:32:33;10.75;;;9.75;;
18754;SDS011;35061;47.664;9.166;2022-07-25T04:35:01;11.10;;;10.00;;
18754;SDS011;35061;47.664;9.166;2022-07-25T04:37:29;12.48;;;11.18;;
18754;SDS011;35061;47.664;9.166;2022-07-25T04:39:56;12.50;;;11.05;;
18754;SDS011;35061;47.664;9.166;2022-07-25T04:42:24;11.18;;;10.15;;
18754;SDS011;35061;47.664;9.166;2022-07-25T04:44:52;11.57;;;10.15;;
18754;SDS011;35061;47.664;9.166;2022-07-25T04:47:20;11.77;;;9.55;;
18754;SDS011;35061;47.664;9.166;2022-07-25T04:49:48;12.30;;;10.50;;
18754;SDS011;35061;47.664;9.166;2022-07-25T04:52:15;11.65;;;10.57;;
18754;SDS011;35061;47.664;9.166;2022-07-25T04:54:43;11.98;;;10.43;;
18754;SDS011;35061;47.664;9.166;2022-07-25T04:57:11;11.48;;;10.32;;
18754;SDS011;35061;47.664;9.166;2022-07-25T04:59:39;11.12;;;10.00;;
18754;SDS011;35061;47.664;9.166;2022-07-25T05:02:06;11.93;;;10.75;;
18754;SDS011;35061;47.664;9.166;2022-07-25T05:04:34;12.07;;;10.88;;
18754;SDS011;35061;47.664;9.166;2022-07-25T05:07:10;12.57;;;11.20;;
18754;SDS011;35061;47.664;9.166;2022-07-25T05:09:37;11.35;;;10.20;;
18754;SDS011;35061;47.664;9.166;2022-07-25T05:12:06;11.57;;;10.45;;
18754;SDS011;35061;47.664;9.166;2022-07-25T05:14:34;11.93;;;10.75;;
18754;SDS011;35061;47.664;9.166;2022-07-25T05:17:02;11.45;;;10.25;;
18754;SDS011;35061;47.664;9.166;2022-07-25T05:19:29;14.13;;;10.00;;
18754;SDS011;35061;47.664;9.166;2022-07-25T05:21:57;11.65;;;10.45;;
18754;SDS011;35061;47.664;9.166;2022-07-25T05:24:25;12.32;;;10.75;;
18754;SDS011;35061;47.664;9.166;2022-07-25T05:26:53;12.57;;;11.27;;
18754;SDS011;35061;47.664;9.166;2022-07-25T05:29:20;17.87;;;11.77;;
18754;SDS011;35061;47.664;9.166;2022-07-25T05:31:48;11.90;;;10.65;;
18754;SDS011;35061;47.664;9.166;2022-07-25T05:34:16;11.48;;;10.40;;
18754;SDS011;35061;47.664;9.166;2022-07-25T05:36:44;12.32;;;11.12;;
18754;SDS011;35061;47.664;9.166;2022-07-25T05:39:12;12.13;;;10.82;;
18754;SDS011;35061;47.664;9.166;2022-07-25T05:41:40;11.68;;;10.43;;
18754;SDS011;35061;47.664;9.166;2022-07-25T05:44:08;14.80;;;11.30;;
18754;SDS011;35061;47.664;9.166;2022-07-25T05:46:36;12.27;;;11.07;;
18754;SDS011;35061;47.664;9.166;2022-07-25T05:49:04;12.45;;;10.70;;
18754;SDS011;35061;47.664;9.166;2022-07-25T05:51:31;12.32;;;11.12;;
18754;SDS011;35061;47.664;9.166;2022-07-25T05:53:59;18.50;;;10.98;;
18754;SDS011;35061;47.664;9.166;2022-07-25T05:56:27;12.63;;;11.30;;
18754;SDS011;35061;47.664;9.166;2022-07-25T05:58:56;12.75;;;10.93;;
18754;SDS011;35061;47.664;9.166;2022-07-25T06:01:23;12.88;;;11.12;;
18754;SDS011;35061;47.664;9.166;2022-07-25T06:03:51;12.93;;;11.60;;
18754;SDS011;35061;47.664;9.166;2022-07-25T06:06:19;11.82;;;10.73;;
18754;SDS011;35061;47.664;9.166;2022-07-25T06:08:47;13.10;;;11.05;;
18754;SDS011;35061;47.664;9.166;2022-07-25T06:11:14;13.10;;;11.70;;
18754;SDS011;35061;47.664;9.166;2022-07-25T06:13:42;11.52;;;10.27;;
18754;SDS011;35061;47.664;9.166;2022-07-25T06:16:10;13.07;;;11.77;;
18754;SDS011;35061;47.664;9.166;2022-07-25T06:18:38;11.43;;;10.43;;
18754;SDS011;35061;47.664;9.166;2022-07-25T06:21:06;11.73;;;10.32;;
18754;SDS011;35061;47.664;9.166;2022-07-25T06:23:33;11.73;;;10.25;;
18754;SDS011;35061;47.664;9.166;2022-07-25T06:26:01;11.75;;;10.55;;
18754;SDS011;35061;47.664;9.166;2022-07-25T06:28:29;12.50;;;11.30;;
18754;SDS011;35061;47.664;9.166;2022-07-25T06:30:56;12.25;;;10.93;;
18754;SDS011;35061;47.664;9.166;2022-07-25T06:33:24;11.25;;;10.20;;
18754;SDS011;35061;47.664;9.166;2022-07-25T06:35:52;11.50;;;10.40;;
18754;SDS011;35061;47.664;9.166;2022-07-25T06:38:20;12.00;;;10.73;;
18754;SDS011;35061;47.664;9.166;2022-07-25T06:40:47;11.88;;;10.65;;
18754;SDS011;35061;47.664;9.166;2022-07-25T06:43:15;11.70;;;10.35;;
18754;SDS011;35061;47.664;9.166;2022-07-25T06:45:43;14.35;;;11.77;;
18754;SDS011;35061;47.664;9.166;2022-07-25T06:48:14;12.50;;;11.20;;
18754;SDS011;35061;47.664;9.166;2022-07-25T06:50:42;12.70;;;11.40;;
18754;SDS011;35061;47.664;9.166;2022-07-25T06:53:10;15.20;;;11.15;;
18754;SDS011;35061;47.664;9.166;2022-07-25T06:55:38;12.82;;;11.40;;
18754;SDS011;35061;47.664;9.166;2022-07-25T06:58:06;11.48;;;10.40;;
18754;SDS011;35061;47.664;9.166;2022-07-25T07:00:34;12.07;;;10.20;;
18754;SDS011;35061;47.664;9.166;2022-07-25T07:03:02;13.23;;;10.73;;
18754;SDS011;35061;47.664;9.166;2022-07-25T07:05:31;11.15;;;9.98;;
18754;SDS011;35061;47.664;9.166;2022-07-25T07:08:00;10.35;;;9.45;;
18754;SDS011;35061;47.664;9.166;2022-07-25T07:10:29;11.00;;;9.90;;
18754;SDS011;35061;47.664;9.166;2022-07-25T07:13:04;11.55;;;10.43;;
18754;SDS011;35061;47.664;9.166;2022-07-25T07:15:33;10.93;;;9.82;;
18754;SDS011;35061;47.664;9.166;2022-07-25T07:18:01;12.23;;;11.05;;
18754;SDS011;35061;47.664;9.166;2022-07-25T07:20:29;11.80;;;10.60;;
18754;SDS011;35061;47.664;9.166;2022-07-25T07:22:56;11.85;;;10.38;;
18754;SDS011;35061;47.664;9.166;2022-07-25T07:25:24;11.73;;;10.52;;
18754;SDS011;35061;47.664;9.166;2022-07-25T07:27:53;11.18;;;10.15;;
18754;SDS011;35061;47.664;9.166;2022-07-25T07:30:21;11.18;;;9.77;;
18754;SDS011;35061;47.664;9.166;2022-07-25T07:32:58;11.90;;;10.57;;
18754;SDS011;35061;47.664;9.166;2022-07-25T07:35:26;11.43;;;10.18;;
18754;SDS011;35061;47.664;9.166;2022-07-25T07:38:00;12.35;;;10.63;;
18754;SDS011;35061;47.664;9.166;2022-07-25T07:40:27;9.85;;;8.93;;
18754;SDS011;35061;47.664;9.166;2022-07-25T07:42:55;10.55;;;9.52;;
18754;SDS011;35061;47.664;9.166;2022-07-25T07:45:24;11.30;;;10.20;;
18754;SDS011;35061;47.664;9.166;2022-07-25T07:47:53;11.60;;;10.43;;
18754;SDS011;35061;47.664;9.166;2022-07-25T07:50:25;10.02;;;9.13;;
18754;SDS011;35061;47.664;9.166;2022-07-25T07:52:54;10.93;;;9.85;;
18754;SDS011;35061;47.664;9.166;2022-07-25T07:55:22;11.43;;;10.38;;
18754;SDS011;35061;47.664;9.166;2022-07-25T07:58:13;11.88;;;10.68;;
18754;SDS011;35061;47.664;9.166;2022-07-25T08:00:46;11.40;;;10.38;;
18754;SDS011;35061;47.664;9.166;2022-07-25T08:03:19;11.90;;;10.68;;
18754;SDS011;35061;47.664;9.166;2022-07-25T08:05:48;12.48;;;11.27;;
18754;SDS011;35061;47.664;9.166;2022-07-25T08:08:18;12.07;;;10.88;;
18754;SDS011;35061;47.664;9.166;2022-07-25T08:10:47;12.65;;;11.50;;
18754;SDS011;35061;47.664;9.166;2022-07-25T08:13:27;12.75;;;11.40;;
18754;SDS011;35061;47.664;9.166;2022-07-25T08:15:57;14.27;;;11.98;;
18754;SDS011;35061;47.664;9.166;2022-07-25T08:18:26;13.15;;;11.80;;
18754;SDS011;35061;47.664;9.166;2022-07-25T08:20:56;11.88;;;10.65;;
18754;SDS011;35061;47.664;9.166;2022-07-25T08:23:23;13.00;;;11.73;;
18754;SDS011;35061;47.664;9.166;2022-07-25T08:25:53;12.48;;;11.27;;
18754;SDS011;35061;47.664;9.166;2022-07-25T08:28:21;12.88;;;11.57;;
18754;SDS011;35061;47.664;9.166;2022-07-25T08:30:49;12.40;;;11.10;;
18754;SDS011;35061;47.664;9.166;2022-07-25T08:33:17;13.98;;;11.68;;
18754;SDS011;35061;47.664;9.166;2022-07-25T08:35:46;12.65;;;11.35;;
18754;SDS011;35061;47.664;9.166;2022-07-25T08:38:15;12.35;;;11.00;;
18754;SDS011;35061;47.664;9.166;2022-07-25T08:40:43;12.75;;;11.55;;
18754;SDS011;35061;47.664;9.166;2022-07-25T08:43:11;12.98;;;11.77;;
18754;SDS011;35061;47.664;9.166;2022-07-25T08:45:44;13.52;;;12.37;;
18754;SDS011;35061;47.664;9.166;2022-07-25T08:48:17;13.38;;;12.18;;
18754;SDS011;35061;47.664;9.166;2022-07-25T08:50:47;13.15;;;11.60;;
18754;SDS011;35061;47.664;9.166;2022-07-25T08:53:16;13.57;;;12.32;;
18754;SDS011;35061;47.664;9.166;2022-07-25T08:56:05;13.15;;;11.95;;
18754;SDS011;35061;47.664;9.166;2022-07-25T08:58:41;13.65;;;12.25;;
18754;SDS011;35061;47.664;9.166;2022-07-25T09:01:10;13.05;;;11.75;;
18754;SDS011;35061;47.664;9.166;2022-07-25T09:03:41;14.45;;;13.13;;
18754;SDS011;35061;47.664;9.166;2022-07-25T09:06:16;12.73;;;11.52;;
18754;SDS011;35061;47.664;9.166;2022-07-25T09:08:55;13.77;;;12.48;;
18754;SDS011;35061;47.664;9.166;2022-07-25T09:11:26;14.82;;;13.38;;
18754;SDS011;35061;47.664;9.166;2022-07-25T09:14:05;14.45;;;12.77;;
18754;SDS011;35061;47.664;9.166;2022-07-25T09:16:41;12.80;;;11.60;;
18754;SDS011;35061;47.664;9.166;2022-07-25T09:19:11;16.48;;;14.20;;
18754;SDS011;35061;47.664;9.166;2022-07-25T09:21:41;13.68;;;12.45;;
18754;SDS011;35061;47.664;9.166;2022-07-25T09:24:14;14.55;;;13.25;;
18754;SDS011;35061;47.664;9.166;2022-07-25T09:26:50;13.82;;;12.52;;
18754;SDS011;35061;47.664;9.166;2022-07-25T09:31:49;12.90;;;11.65;;
18754;SDS011;35061;47.664;9.166;2022-07-25T09:34:31;11.35;;;10.35;;
18754;SDS011;35061;47.664;9.166;2022-07-25T09:37:01;12.73;;;11.38;;
18754;SDS011;35061;47.664;9.166;2022-07-25T09:42:16;12.10;;;11.10;;
18754;SDS011;35061;47.664;9.166;2022-07-25T09:44:44;14.77;;;13.38;;
18754;SDS011;35061;47.664;9.166;2022-07-25T09:47:27;13.35;;;12.10;;
18754;SDS011;35061;47.664;9.166;2022-07-25T09:49:56;12.57;;;11.35;;
18754;SDS011;35061;47.664;9.166;2022-07-25T09:52:24;12.98;;;11.68;;
18754;SDS011;35061;47.664;9.166;2022-07-25T09:54:52;12.98;;;11.77;;
18754;SDS011;35061;47.664;9.166;2022-07-25T09:57:23;10.88;;;9.98;;
18754;SDS011;35061;47.664;9.166;2022-07-25T09:59:52;13.02;;;11.85;;
18754;SDS011;35061;47.664;9.166;2022-07-25T10:02:38;11.80;;;10.75;;
18754;SDS011;35061;47.664;9.166;2022-07-25T10:08:13;11.70;;;10.70;;
18754;SDS011;35061;47.664;9.166;2022-07-25T10:10:41;11.57;;;10.20;;
18754;SDS011;35061;47.664;9.166;2022-07-25T10:13:11;11.85;;;10.65;;
18754;SDS011;35061;47.664;9.166;2022-07-25T10:18:12;11.65;;;10.52;;
18754;SDS011;35061;47.664;9.166;2022-07-25T10:20:42;11.43;;;9.93;;
18754;SDS011;35061;47.664;9.166;2022-07-25T10:23:15;10.77;;;9.68;;
18754;SDS011;35061;47.664;9.166;2022-07-25T10:28:43;10.43;;;9.40;;
18754;SDS011;35061;47.664;9.166;2022-07-25T10:31:19;9.23;;;8.35;;
18754;SDS011;35061;47.664;9.166;2022-07-25T10:33:52;9.93;;;9.10;;
18754;SDS011;35061;47.664;9.166;2022-07-25T10:36:22;9.13;;;8.32;;
18754;SDS011;35061;47.664;9.166;2022-07-25T10:38:51;9.70;;;8.90;;
18754;SDS011;35061;47.664;9.166;2022-07-25T10:41:22;9.43;;;8.52;;
18754;SDS011;35061;47.664;9.166;2022-07-25T10:43:54;11.20;;;10.05;;
18754;SDS011;35061;47.664;9.166;2022-07-25T10:46:26;9.20;;;8.35;;
18754;SDS011;35061;47.664;9.166;2022-07-25T10:48:58;9.25;;;8.48;;
18754;SDS011;35061;47.664;9.166;2022-07-25T10:51:28;10.60;;;9.55;;
18754;SDS011;35061;47.664;9.166;2022-07-25T10:54:14;10.57;;;9.50;;
18754;SDS011;35061;47.664;9.166;2022-07-25T10:59:41;9.20;;;8.40;;
18754;SDS011;35061;47.664;9.166;2022-07-25T11:02:09;9.60;;;8.65;;
18754;SDS011;35061;47.664;9.166;2022-07-25T11:04:45;9.50;;;8.70;;
18754;SDS011;35061;47.664;9.166;2022-07-25T11:07:24;9.18;;;8.27;;
18754;SDS011;35061;47.664;9.166;2022-07-25T11:09:56;8.13;;;7.37;;
18754;SDS011;35061;47.664;9.166;2022-07-25T11:12:25;8.95;;;8.15;;
18754;SDS011;35061;47.664;9.166;2022-07-25T11:15:00;8.20;;;7.43;;
18754;SDS011;35061;47.664;9.166;2022-07-25T11:17:30;8.07;;;7.47;;
18754;SDS011;35061;47.664;9.166;2022-07-25T11:19:59;7.87;;;7.18;;
18754;SDS011;35061;47.664;9.166;2022-07-25T11:22:34;8.00;;;7.20;;
18754;SDS011;35061;47.664;9.166;2022-07-25T11:25:09;7.72;;;6.62;;
18754;SDS011;35061;47.664;9.166;2022-07-25T11:27:39;8.27;;;7.35;;
18754;SDS011;35061;47.664;9.166;2022-07-25T11:32:46;6.87;;;6.28;;
18754;SDS011;35061;47.664;9.166;2022-07-25T11:35:20;8.55;;;7.07;;
18754;SDS011;35061;47.664;9.166;2022-07-25T11:37:50;7.30;;;6.60;;
18754;SDS011;35061;47.664;9.166;2022-07-25T11:40:20;8.45;;;7.25;;
18754;SDS011;35061;47.664;9.166;2022-07-25T11:42:50;7.20;;;6.43;;
18754;SDS011;35061;47.664;9.166;2022-07-25T11:48:10;7.07;;;6.47;;
18754;SDS011;35061;47.664;9.166;2022-07-25T11:50:41;7.18;;;6.47;;
18754;SDS011;35061;47.664;9.166;2022-07-25T11:53:12;6.53;;;6.03;;
18754;SDS011;35061;47.664;9.166;2022-07-25T11:55:42;6.80;;;6.30;;
18754;SDS011;35061;47.664;9.166;2022-07-25T11:58:11;7.80;;;7.00;;
18754;SDS011;35061;47.664;9.166;2022-07-25T12:00:43;7.32;;;6.72;;
18754;SDS011;35061;47.664;9.166;2022-07-25T12:03:14;7.35;;;6.65;;
18754;SDS011;35061;47.664;9.166;2022-07-25T12:05:46;6.30;;;5.80;;
18754;SDS011;35061;47.664;9.166;2022-07-25T12:08:16;7.47;;;6.78;;
18754;SDS011;35061;47.664;9.166;2022-07-25T12:10:46;7.00;;;6.40;;
18754;SDS011;35061;47.664;9.166;2022-07-25T12:13:25;7.47;;;6.78;;
18754;SDS011;35061;47.664;9.166;2022-07-25T12:15:58;7.03;;;6.45;;
18754;SDS011;35061;47.664;9.166;2022-07-25T12:18:26;6.68;;;6.07;;
18754;SDS011;35061;47.664;9.166;2022-07-25T12:20:54;6.30;;;5.80;;
18754;SDS011;35061;47.664;9.166;2022-07-25T12:23:22;8.02;;;5.60;;
18754;SDS011;35061;47.664;9.166;2022-07-25T12:25:50;6.57;;;6.00;;
18754;SDS011;35061;47.664;9.166;2022-07-25T12:28:18;5.97;;;5.47;;
18754;SDS011;35061;47.664;9.166;2022-07-25T12:30:46;6.87;;;6.07;;
18754;SDS011;35061;47.664;9.166;2022-07-25T12:33:21;6.10;;;5.60;;
18754;SDS011;35061;47.664;9.166;2022-07-25T12:35:49;5.82;;;5.40;;
18754;SDS011;35061;47.664;9.166;2022-07-25T12:38:16;7.40;;;6.18;;
18754;SDS011;35061;47.664;9.166;2022-07-25T12:40:44;6.47;;;5.85;;
18754;SDS011;35061;47.664;9.166;2022-07-25T12:43:12;6.25;;;5.65;;
18754;SDS011;35061;47.664;9.166;2022-07-25T12:45:40;6.28;;;5.68;;
18754;SDS011;35061;47.664;9.166;2022-07-25T12:48:09;5.85;;;5.25;;
18754;SDS011;35061;47.664;9.166;2022-07-25T12:50:39;6.15;;;5.60;;
18754;SDS011;35061;47.664;9.166;2022-07-25T12:53:07;6.50;;;5.93;;
18754;SDS011;35061;47.664;9.166;2022-07-25T12:55:35;6.22;;;5.68;;
18754;SDS011;35061;47.664;9.166;2022-07-25T12:58:03;6.62;;;6.12;;
18754;SDS011;35061;47.664;9.166;2022-07-25T13:00:31;8.52;;;6.37;;
18754;SDS011;35061;47.664;9.166;2022-07-25T13:02:59;6.60;;;6.07;;
18754;SDS011;35061;47.664;9.166;2022-07-25T13:05:27;6.32;;;5.82;;
18754;SDS011;35061;47.664;9.166;2022-07-25T13:07:55;6.50;;;5.90;;
18754;SDS011;35061;47.664;9.166;2022-07-25T13:10:23;7.18;;;6.45;;
18754;SDS011;35061;47.664;9.166;2022-07-25T13:12:51;6.72;;;6.22;;
18754;SDS011;35061;47.664;9.166;2022-07-25T13:15:19;7.12;;;6.53;;
18754;SDS011;35061;47.664;9.166;2022-07-25T13:17:49;7.22;;;6.37;;
18754;SDS011;35061;47.664;9.166;2022-07-25T13:20:17;7.93;;;6.82;;
18754;SDS011;35061;47.664;9.166;2022-07-25T13:22:45;8.85;;;6.93;;
18754;SDS011;35061;47.664;9.166;2022-07-25T13:25:12;6.75;;;6.22;;
18754;SDS011;35061;47.664;9.166;2022-07-25T13:27:40;7.30;;;6.70;;
18754;SDS011;35061;47.664;9.166;2022-07-25T13:30:08;8.15;;;6.60;;
18754;SDS011;35061;47.664;9.166;2022-07-25T13:32:36;7.18;;;6.57;;
18754;SDS011;35061;47.664;9.166;2022-07-25T13:35:04;6.35;;;5.85;;
18754;SDS011;35061;47.664;9.166;2022-07-25T13:37:32;6.22;;;5.72;;
18754;SDS011;35061;47.664;9.166;2022-07-25T13:40:00;7.32;;;6.60;;
18754;SDS011;35061;47.664;9.166;2022-07-25T13:42:28;7.05;;;6.45;;
18754;SDS011;35061;47.664;9.166;2022-07-25T13:44:56;6.97;;;6.37;;
18754;SDS011;35061;47.664;9.166;2022-07-25T13:47:23;6.65;;;6.03;;
18754;SDS011;35061;47.664;9.166;2022-07-25T13:49:55;7.07;;;6.37;;
18754;SDS011;35061;47.664;9.166;2022-07-25T13:52:23;7.10;;;6.40;;
18754;SDS011;35061;47.664;9.166;2022-07-25T13:54:51;6.95;;;5.68;;
18754;SDS011;35061;47.664;9.166;2022-07-25T13:57:19;8.25;;;6.90;;
18754;SDS011;35061;47.664;9.166;2022-07-25T13:59:47;7.82;;;6.28;;
18754;SDS011;35061;47.664;9.166;2022-07-25T14:02:14;7.95;;;7.30;;
18754;SDS011;35061;47.664;9.166;2022-07-25T14:04:42;7.10;;;6.50;;
18754;SDS011;35061;47.664;9.166;2022-07-25T14:07:10;6.70;;;6.20;;
18754;SDS011;35061;47.664;9.166;2022-07-25T14:09:38;6.82;;;6.32;;
18754;SDS011;35061;47.664;9.166;2022-07-25T14:12:06;6.75;;;6.20;;
18754;SDS011;35061;47.664;9.166;2022-07-25T14:14:33;7.90;;;7.20;;
18754;SDS011;35061;47.664;9.166;2022-07-25T14:17:01;6.57;;;6.07;;
18754;SDS011;35061;47.664;9.166;2022-07-25T14:19:29;6.80;;;6.22;;
18754;SDS011;35061;47.664;9.166;2022-07-25T14:21:57;6.93;;;6.30;;
18754;SDS011;35061;47.664;9.166;2022-07-25T14:24:25;7.68;;;6.15;;
18754;SDS011;35061;47.664;9.166;2022-07-25T14:26:52;7.37;;;6.65;;
18754;SDS011;35061;47.664;9.166;2022-07-25T14:29:21;7.53;;;6.82;;
18754;SDS011;35061;47.664;9.166;2022-07-25T14:31:55;7.35;;;6.62;;
18754;SDS011;35061;47.664;9.166;2022-07-25T14:34:23;7.32;;;6.53;;
18754;SDS011;35061;47.664;9.166;2022-07-25T14:36:51;7.03;;;6.43;;
18754;SDS011;35061;47.664;9.166;2022-07-25T14:39:19;7.35;;;6.53;;
18754;SDS011;35061;47.664;9.166;2022-07-25T14:41:47;7.15;;;6.45;;
18754;SDS011;35061;47.664;9.166;2022-07-25T14:44:14;6.53;;;5.93;;
18754;SDS011;35061;47.664;9.166;2022-07-25T14:46:42;6.87;;;6.20;;
18754;SDS011;35061;47.664;9.166;2022-07-25T14:49:11;7.55;;;6.72;;
18754;SDS011;35061;47.664;9.166;2022-07-25T14:51:40;7.00;;;6.35;;
18754;SDS011;35061;47.664;9.166;2022-07-25T14:54:09;7.05;;;6.35;;
18754;SDS011;35061;47.664;9.166;2022-07-25T14:56:37;7.03;;;6.43;;
18754;SDS011;35061;47.664;9.166;2022-07-25T14:59:05;7.03;;;6.22;;
18754;SDS011;35061;47.664;9.166;2022-07-25T15:01:35;8.23;;;6.80;;
18754;SDS011;35061;47.664;9.166;2022-07-25T15:04:04;6.75;;;6.15;;
18754;SDS011;35061;47.664;9.166;2022-07-25T15:06:32;7.25;;;6.55;;
18754;SDS011;35061;47.664;9.166;2022-07-25T15:09:00;8.55;;;7.00;;